Time;durP1;ratioP1;P1;durP2;ratioP2;P2;SDS_P1;SDS_P2;PMS_P1;PMS_P2;Temp;Humidity;BMP_temperature;BMP_pressure;BME280_temperature;BME280_humidity;BME280_pressure;Samples;Min_cycle;Max_cycle;Signal;HPM_P1;HPM_P2
2023/08/12 00:00:47;;;;;;;5.20;2.42;;;;;;;;;;4945186;28;99461;-84
2023/08/12 00:03:13;;;;;;;6.53;2.70;;;;;;;;;;4939840;28;100444;-84
2023/08/12 00:05:40;;;;;;;7.03;2.65;;;;;;;;;;4943733;28;98481;-84
2023/08/12 00:08:07;;;;;;;6.25;2.65;;;;;;;;;;4930099;28;100109;-84
2023/08/12 00:10:34;;;;;;;6.53;2.90;;;;;;;;;;4949162;28;98444;-84
2023/08/12 00:13:00;;;;;;;7.70;3.30;;;;;;;;;;4950867;28;98525;-84
2023/08/12 00:15:27;;;;;;;8.10;2.80;;;;;;;;;;4949884;28;98712;-84
2023/08/12 00:17:53;;;;;;;7.13;2.67;;;;;;;;;;4929852;28;101004;-84
2023/08/12 00:20:20;;;;;;;10.05;3.00;;;;;;;;;;4946558;28;98986;-83
2023/08/12 00:22:46;;;;;;;10.85;2.92;;;;;;;;;;4949658;28;99073;-83
2023/08/12 00:25:15;;;;;;;9.80;2.72;;;;;;;;;;4949925;28;99143;-83
2023/08/12 00:27:42;;;;;;;6.82;2.85;;;;;;;;;;4950249;28;100370;-83
2023/08/12 00:30:08;;;;;;;7.85;2.97;;;;;;;;;;4949554;28;99044;-83
2023/08/12 00:32:35;;;;;;;7.15;2.60;;;;;;;;;;4937926;28;98556;-83
2023/08/12 00:35:02;;;;;;;8.05;2.83;;;;;;;;;;4950308;28;98796;-83
2023/08/12 00:37:29;;;;;;;6.93;2.63;;;;;;;;;;4945769;28;99243;-86
2023/08/12 00:39:56;;;;;;;9.02;3.25;;;;;;;;;;4961119;28;98498;-84
2023/08/12 00:42:22;;;;;;;7.55;2.60;;;;;;;;;;4949884;28;101552;-85
2023/08/12 00:44:49;;;;;;;7.15;2.92;;;;;;;;;;4946577;28;98642;-85
2023/08/12 00:47:16;;;;;;;6.15;2.58;;;;;;;;;;4942510;28;99936;-86
2023/08/12 00:49:45;;;;;;;7.13;2.80;;;;;;;;;;4953786;28;100901;-84
2023/08/12 00:52:14;;;;;;;8.15;3.20;;;;;;;;;;4949328;28;98563;-84
2023/08/12 00:54:40;;;;;;;7.28;2.60;;;;;;;;;;4954523;28;100345;-85
2023/08/12 00:57:07;;;;;;;8.85;2.90;;;;;;;;;;4948231;28;99109;-83
2023/08/12 00:59:35;;;;;;;6.97;2.80;;;;;;;;;;4945458;28;97777;-83
2023/08/12 01:02:01;;;;;;;7.40;2.80;;;;;;;;;;4950931;28;98565;-83
2023/08/12 01:04:28;;;;;;;7.78;3.35;;;;;;;;;;4957700;28;98690;-83
2023/08/12 01:06:55;;;;;;;7.53;2.75;;;;;;;;;;4956735;28;100212;-84
2023/08/12 01:09:22;;;;;;;10.60;3.28;;;;;;;;;;4950256;28;98616;-83
2023/08/12 01:11:52;;;;;;;8.65;3.00;;;;;;;;;;4945715;28;99034;-83
2023/08/12 01:14:27;;;;;;;8.63;3.10;;;;;;;;;;4934477;28;101551;-83
2023/08/12 01:16:58;;;;;;;6.22;2.90;;;;;;;;;;4933727;28;99582;-83
2023/08/12 01:19:38;;;;;;;5.93;2.63;;;;;;;;;;4948350;28;98819;-82
2023/08/12 01:22:06;;;;;;;8.20;3.25;;;;;;;;;;4936867;28;98834;-82
2023/08/12 01:24:36;;;;;;;9.50;3.35;;;;;;;;;;4950062;28;98471;-83
2023/08/12 01:27:03;;;;;;;9.57;3.25;;;;;;;;;;4944102;28;102301;-83
2023/08/12 01:29:30;;;;;;;8.05;3.03;;;;;;;;;;4943864;28;99319;-83
2023/08/12 01:32:09;;;;;;;8.45;3.15;;;;;;;;;;4936806;28;99280;-84
2023/08/12 01:34:54;;;;;;;8.10;2.75;;;;;;;;;;4937621;28;98568;-83
2023/08/12 01:37:24;;;;;;;6.38;2.90;;;;;;;;;;4947955;28;99321;-83
2023/08/12 01:39:52;;;;;;;7.13;3.25;;;;;;;;;;4944953;28;98476;-84
2023/08/12 01:42:19;;;;;;;6.75;3.20;;;;;;;;;;4936796;28;102086;-84
2023/08/12 01:44:46;;;;;;;8.55;3.03;;;;;;;;;;4931039;28;101926;-84
2023/08/12 01:47:13;;;;;;;7.32;3.22;;;;;;;;;;4941363;28;98485;-83
2023/08/12 01:49:40;;;;;;;9.30;2.88;;;;;;;;;;4946315;28;100818;-84
2023/08/12 01:52:06;;;;;;;8.20;3.17;;;;;;;;;;4929310;28;98590;-84
2023/08/12 01:54:34;;;;;;;10.35;3.55;;;;;;;;;;4941805;28;98875;-84
2023/08/12 01:57:05;;;;;;;7.53;3.03;;;;;;;;;;4929547;28;100898;-84
2023/08/12 01:59:32;;;;;;;9.10;3.00;;;;;;;;;;4938391;28;98515;-84
2023/08/12 02:01:58;;;;;;;7.30;3.17;;;;;;;;;;4936824;28;100152;-85
2023/08/12 02:04:28;;;;;;;10.15;3.17;;;;;;;;;;4947597;28;99672;-85
2023/08/12 02:06:55;;;;;;;9.23;3.00;;;;;;;;;;4944938;28;99642;-85
2023/08/12 02:09:22;;;;;;;7.15;2.63;;;;;;;;;;4930280;28;99961;-84
2023/08/12 02:11:49;;;;;;;;;;;;;;;;;;4944532;28;98516;-84
2023/08/12 02:14:16;;;;;;;7.43;3.13;;;;;;;;;;4948512;28;100932;-85
2023/08/12 02:16:43;;;;;;;7.93;3.13;;;;;;;;;;4937082;28;101681;-85
2023/08/12 02:19:09;;;;;;;8.85;3.05;;;;;;;;;;4945691;28;98950;-85
2023/08/12 02:21:36;;;;;;;7.57;3.30;;;;;;;;;;4941056;28;99521;-85
2023/08/12 02:24:02;;;;;;;10.68;3.28;;;;;;;;;;4944067;28;100596;-84
2023/08/12 02:26:29;;;;;;;9.23;3.10;;;;;;;;;;4962658;28;98542;-84
2023/08/12 02:28:56;;;;;;;10.95;3.40;;;;;;;;;;4943781;28;98926;-83
2023/08/12 02:31:22;;;;;;;9.45;3.17;;;;;;;;;;4937663;28;99325;-83
2023/08/12 02:33:51;;;;;;;8.32;3.33;;;;;;;;;;4947530;28;99316;-83
2023/08/12 02:36:18;;;;;;;9.45;3.22;;;;;;;;;;4946272;28;99170;-83
2023/08/12 02:38:44;;;;;;;9.35;3.22;;;;;;;;;;4938801;28;97873;-83
2023/08/12 02:41:11;;;;;;;9.38;3.75;;;;;;;;;;4933762;28;98468;-85
2023/08/12 02:43:38;;;;;;;9.77;3.42;;;;;;;;;;4943519;28;99822;-84
2023/08/12 02:46:04;;;;;;;11.88;3.78;;;;;;;;;;4941153;28;99223;-84
2023/08/12 02:48:31;;;;;;;7.35;3.05;;;;;;;;;;4940586;28;102246;-83
2023/08/12 02:50:57;;;;;;;10.48;3.67;;;;;;;;;;4940872;28;100818;-84
2023/08/12 02:53:24;;;;;;;9.45;4.43;;;;;;;;;;4945308;28;100326;-82
2023/08/12 02:55:50;;;;;;;11.57;3.83;;;;;;;;;;4952180;28;99190;-84
2023/08/12 02:58:17;;;;;;;9.50;3.70;;;;;;;;;;4958582;28;98070;-85
2023/08/12 03:00:44;;;;;;;8.15;3.80;;;;;;;;;;4953241;28;98870;-83
2023/08/12 03:03:11;;;;;;;;;;;;;;;;;;4936870;28;100486;-83
2023/08/12 03:05:38;;;;;;;8.07;3.47;;;;;;;;;;4946816;28;98917;-83
2023/08/12 03:08:05;;;;;;;10.15;4.10;;;;;;;;;;4942149;28;99947;-83
2023/08/12 03:10:35;;;;;;;8.80;3.95;;;;;;;;;;4925625;28;103188;-83
2023/08/12 03:13:02;;;;;;;7.80;3.53;;;;;;;;;;4927436;28;99122;-83
2023/08/12 03:15:28;;;;;;;10.15;4.15;;;;;;;;;;4950063;28;102890;-83
2023/08/12 03:17:56;;;;;;;11.57;4.10;;;;;;;;;;4946491;28;98656;-84
2023/08/12 03:20:24;;;;;;;8.98;4.00;;;;;;;;;;4932090;28;101655;-85
2023/08/12 03:22:51;;;;;;;9.20;4.20;;;;;;;;;;4950028;28;100078;-83
2023/08/12 03:25:19;;;;;;;8.43;3.60;;;;;;;;;;4946114;28;98596;-83
2023/08/12 03:27:46;;;;;;;10.60;4.05;;;;;;;;;;4930344;28;100358;-83
2023/08/12 03:30:13;;;;;;;;;;;;;;;;;;4934717;28;102292;-83
2023/08/12 03:32:41;;;;;;;9.27;4.10;;;;;;;;;;4937644;28;98542;-83
2023/08/12 03:35:09;;;;;;;8.20;3.67;;;;;;;;;;4931974;28;101566;-85
2023/08/12 03:37:36;;;;;;;9.25;3.65;;;;;;;;;;4944467;28;98854;-83
2023/08/12 03:40:03;;;;;;;7.50;3.90;;;;;;;;;;4954415;28;101133;-83
2023/08/12 03:42:31;;;;;;;;;;;;;;;;;;4961009;28;99165;-83
2023/08/12 03:45:00;;;;;;;9.52;4.00;;;;;;;;;;4971582;28;97693;-83
2023/08/12 03:47:26;;;;;;;11.20;3.72;;;;;;;;;;4953986;28;100372;-83
2023/08/12 03:49:54;;;;;;;10.05;3.95;;;;;;;;;;4963983;28;100741;-83
2023/08/12 03:52:22;;;;;;;8.85;3.95;;;;;;;;;;4953779;28;97910;-84
2023/08/12 03:54:50;;;;;;;9.18;4.13;;;;;;;;;;4971144;28;98718;-84
2023/08/12 03:57:16;;;;;;;15.07;4.63;;;;;;;;;;4951657;28;102176;-85
2023/08/12 03:59:43;;;;;;;8.40;3.97;;;;;;;;;;4948947;28;101771;-84
2023/08/12 04:02:10;;;;;;;9.68;4.22;;;;;;;;;;4930579;28;101495;-84
2023/08/12 04:04:37;;;;;;;8.88;4.18;;;;;;;;;;4939258;28;98596;-84
2023/08/12 04:07:03;;;;;;;11.20;4.05;;;;;;;;;;4935436;28;99435;-84
2023/08/12 04:09:30;;;;;;;9.95;4.18;;;;;;;;;;4938632;28;99200;-84
2023/08/12 04:11:57;;;;;;;9.02;4.22;;;;;;;;;;4935434;28;98544;-84
2023/08/12 04:14:23;;;;;;;10.02;4.65;;;;;;;;;;4936957;28;99306;-85
2023/08/12 04:16:50;;;;;;;10.25;4.97;;;;;;;;;;4938939;28;98449;-84
2023/08/12 04:19:16;;;;;;;12.25;5.18;;;;;;;;;;4943707;28;99521;-85
2023/08/12 04:21:46;;;;;;;11.63;6.05;;;;;;;;;;4925677;28;102431;-84
2023/08/12 04:24:13;;;;;;;12.98;6.32;;;;;;;;;;4919554;28;99294;-84
2023/08/12 04:26:40;;;;;;;14.63;7.07;;;;;;;;;;4947285;28;102810;-84
2023/08/12 04:29:06;;;;;;;13.25;6.90;;;;;;;;;;4943547;28;101724;-85
2023/08/12 04:31:36;;;;;;;15.52;7.20;;;;;;;;;;4932901;28;98938;-85
2023/08/12 04:34:03;;;;;;;11.32;5.68;;;;;;;;;;4923926;28;101289;-85
2023/08/12 04:36:31;;;;;;;11.90;6.00;;;;;;;;;;4944830;28;102030;-85
2023/08/12 04:39:00;;;;;;;11.85;6.10;;;;;;;;;;4948587;28;98523;-85
2023/08/12 04:41:27;;;;;;;13.77;5.63;;;;;;;;;;4935448;28;99890;-85
2023/08/12 04:43:54;;;;;;;;;;;;;;;;;;4936408;28;98977;-85
2023/08/12 04:46:25;;;;;;;13.80;5.30;;;;;;;;;;4946470;28;101620;-85
2023/08/12 04:48:52;;;;;;;13.15;6.20;;;;;;;;;;4939119;28;104091;-85
2023/08/12 04:51:19;;;;;;;11.75;5.40;;;;;;;;;;4940127;28;98691;-85
2023/08/12 04:53:45;;;;;;;12.60;6.40;;;;;;;;;;4964436;28;101798;-85
2023/08/12 04:56:13;;;;;;;;;;;;;;;;;;4972078;28;100459;-85
2023/08/12 04:58:39;;;;;;;9.77;5.38;;;;;;;;;;4968200;28;98073;-84
2023/08/12 05:01:07;;;;;;;10.77;5.68;;;;;;;;;;4974509;28;100711;-84
2023/08/12 05:03:35;;;;;;;11.07;5.00;;;;;;;;;;4970559;28;98710;-85
2023/08/12 05:06:02;;;;;;;11.40;5.97;;;;;;;;;;4954729;28;98870;-84
2023/08/12 05:08:29;;;;;;;10.40;5.18;;;;;;;;;;4962868;28;100565;-85
2023/08/12 05:10:57;;;;;;;11.50;5.63;;;;;;;;;;4973149;28;98525;-85
2023/08/12 05:13:24;;;;;;;10.63;5.10;;;;;;;;;;4969072;28;100721;-86
2023/08/12 05:15:51;;;;;;;9.95;5.13;;;;;;;;;;4970725;28;100501;-86
2023/08/12 05:18:18;;;;;;;11.82;5.30;;;;;;;;;;4947553;28;99023;-85
2023/08/12 05:20:44;;;;;;;12.18;6.15;;;;;;;;;;4944073;28;101745;-86
2023/08/12 05:23:13;;;;;;;11.52;5.63;;;;;;;;;;4950913;28;101908;-85
2023/08/12 05:25:41;;;;;;;11.60;5.45;;;;;;;;;;4943404;28;102042;-84
2023/08/12 05:28:07;;;;;;;9.90;5.30;;;;;;;;;;4931596;28;99762;-84
2023/08/12 05:30:34;;;;;;;10.05;5.18;;;;;;;;;;4944462;28;97854;-84
2023/08/12 05:33:02;;;;;;;11.90;4.88;;;;;;;;;;4938008;28;98604;-84
2023/08/12 05:35:32;;;;;;;12.30;6.30;;;;;;;;;;4930965;28;101973;-84
2023/08/12 05:37:59;;;;;;;11.85;6.53;;;;;;;;;;4941638;28;100273;-85
2023/08/12 05:40:26;;;;;;;12.98;6.78;;;;;;;;;;4932738;28;99386;-84
2023/08/12 05:42:53;;;;;;;12.57;6.47;;;;;;;;;;4942713;28;99354;-85
2023/08/12 05:45:19;;;;;;;13.85;8.25;;;;;;;;;;4938869;28;98559;-84
2023/08/12 05:47:46;;;;;;;13.02;6.15;;;;;;;;;;4938330;28;99688;-85
2023/08/12 05:50:12;;;;;;;13.48;7.03;;;;;;;;;;4943445;28;98556;-85
2023/08/12 05:52:39;;;;;;;15.30;8.27;;;;;;;;;;4929952;28;99187;-86
2023/08/12 05:55:06;;;;;;;12.13;6.88;;;;;;;;;;4936338;28;99446;-85
2023/08/12 05:57:32;;;;;;;12.52;6.82;;;;;;;;;;4937150;28;98554;-84
2023/08/12 05:59:59;;;;;;;12.52;6.13;;;;;;;;;;4947727;28;101900;-84
2023/08/12 06:02:26;;;;;;;11.50;5.88;;;;;;;;;;4932098;28;100507;-84
2023/08/12 06:04:53;;;;;;;11.45;6.75;;;;;;;;;;4940456;28;98478;-84
2023/08/12 06:07:20;;;;;;;11.25;5.72;;;;;;;;;;4951700;28;98777;-83
2023/08/12 06:09:47;;;;;;;10.35;5.65;;;;;;;;;;4944469;28;99043;-84
2023/08/12 06:12:14;;;;;;;10.38;5.93;;;;;;;;;;4947854;28;98894;-83
2023/08/12 06:14:40;;;;;;;10.15;5.30;;;;;;;;;;4937372;28;100247;-83
2023/08/12 06:17:07;;;;;;;9.32;4.78;;;;;;;;;;4943108;28;99073;-84
2023/08/12 06:19:34;;;;;;;10.20;4.60;;;;;;;;;;4938835;28;100027;-85
2023/08/12 06:22:01;;;;;;;11.05;4.63;;;;;;;;;;4947749;28;99511;-83
2023/08/12 06:24:27;;;;;;;9.27;4.80;;;;;;;;;;4933080;28;98688;-84
2023/08/12 06:26:54;;;;;;;8.93;4.20;;;;;;;;;;4935416;28;102084;-85
2023/08/12 06:29:20;;;;;;;8.77;4.38;;;;;;;;;;4948139;28;98678;-84
2023/08/12 06:31:47;;;;;;;10.55;4.90;;;;;;;;;;4942366;28;98457;-84
2023/08/12 06:34:14;;;;;;;8.45;4.57;;;;;;;;;;4932715;28;99642;-82
2023/08/12 06:36:40;;;;;;;9.70;4.88;;;;;;;;;;4932497;28;98552;-85
2023/08/12 06:39:07;;;;;;;10.07;5.03;;;;;;;;;;4948369;28;99403;-84
2023/08/12 06:41:34;;;;;;;8.40;4.15;;;;;;;;;;4938241;28;99735;-85
2023/08/12 06:44:01;;;;;;;7.70;3.92;;;;;;;;;;4944250;28;97683;-86
2023/08/12 06:46:28;;;;;;;6.95;3.50;;;;;;;;;;4931795;28;98610;-86
2023/08/12 06:48:54;;;;;;;7.88;3.97;;;;;;;;;;4939631;28;99298;-85
2023/08/12 06:51:21;;;;;;;7.55;3.78;;;;;;;;;;4942309;28;99210;-84
2023/08/12 06:53:48;;;;;;;7.38;3.60;;;;;;;;;;4948482;28;99075;-85
2023/08/12 06:56:14;;;;;;;11.13;3.60;;;;;;;;;;4950440;28;98602;-85
2023/08/12 06:58:41;;;;;;;7.90;3.70;;;;;;;;;;4955110;28;99400;-85
2023/08/12 07:01:08;;;;;;;9.45;3.80;;;;;;;;;;4968924;28;98438;-85
2023/08/12 07:03:40;;;;;;;6.68;3.60;;;;;;;;;;4945348;28;98771;-85
2023/08/12 07:06:07;;;;;;;7.43;3.63;;;;;;;;;;4954086;28;98750;-85
2023/08/12 07:08:33;;;;;;;9.23;3.50;;;;;;;;;;4965450;28;98512;-83
2023/08/12 07:11:00;;;;;;;8.38;4.00;;;;;;;;;;4958251;28;99596;-83
2023/08/12 07:13:27;;;;;;;9.95;3.50;;;;;;;;;;4964773;28;99041;-83
2023/08/12 07:15:53;;;;;;;7.78;3.92;;;;;;;;;;4966297;28;99140;-83
2023/08/12 07:18:20;;;;;;;8.13;3.60;;;;;;;;;;4957244;28;98887;-84
2023/08/12 07:20:46;;;;;;;7.85;3.40;;;;;;;;;;4966999;28;101037;-84
2023/08/12 07:23:13;;;;;;;8.10;3.33;;;;;;;;;;4970311;28;98692;-83
2023/08/12 07:25:39;;;;;;;7.22;3.35;;;;;;;;;;4965946;28;98405;-84
2023/08/12 07:28:06;;;;;;;8.23;3.55;;;;;;;;;;4930306;28;100904;-84
2023/08/12 07:30:33;;;;;;;;;;;;;;;;;;4936350;28;98602;-84
2023/08/12 07:32:59;;;;;;;7.47;3.45;;;;;;;;;;4941571;28;113721;-84
2023/08/12 07:35:26;;;;;;;6.78;2.95;;;;;;;;;;4938920;28;98793;-84
2023/08/12 07:37:52;;;;;;;8.52;3.15;;;;;;;;;;4950838;28;98960;-84
2023/08/12 07:40:19;;;;;;;6.65;2.90;;;;;;;;;;4946524;28;99932;-84
2023/08/12 07:42:46;;;;;;;7.57;3.38;;;;;;;;;;4930640;28;99174;-84
2023/08/12 07:45:12;;;;;;;7.32;2.88;;;;;;;;;;4937361;28;99107;-84
2023/08/12 07:47:39;;;;;;;6.53;2.85;;;;;;;;;;4934642;28;99299;-84
2023/08/12 07:50:06;;;;;;;5.45;2.90;;;;;;;;;;4939103;28;100663;-83
2023/08/12 07:52:33;;;;;;;7.07;2.65;;;;;;;;;;4930536;28;99152;-85
2023/08/12 07:54:59;;;;;;;6.43;2.83;;;;;;;;;;4937172;28;99316;-84
2023/08/12 07:57:26;;;;;;;6.55;3.03;;;;;;;;;;4942156;28;97838;-84
2023/08/12 07:59:52;;;;;;;5.18;2.42;;;;;;;;;;4923285;28;98672;-83
2023/08/12 08:02:19;;;;;;;7.18;2.83;;;;;;;;;;4934613;28;98973;-82
2023/08/12 08:04:48;;;;;;;5.90;2.95;;;;;;;;;;4934687;28;99268;-83
2023/08/12 08:07:16;;;;;;;6.85;2.80;;;;;;;;;;4934493;28;100401;-83
2023/08/12 08:09:42;;;;;;;;;;;;;;;;;;4943605;28;98669;-82
2023/08/12 08:12:09;;;;;;;6.38;3.00;;;;;;;;;;4952393;28;117390;-82
2023/08/12 08:14:37;;;;;;;5.53;2.80;;;;;;;;;;4950251;28;98888;-83
2023/08/12 08:17:03;;;;;;;6.15;2.70;;;;;;;;;;4941499;28;98590;-84
2023/08/12 08:19:30;;;;;;;5.10;2.20;;;;;;;;;;4926538;28;100200;-83
2023/08/12 08:21:57;;;;;;;4.80;2.30;;;;;;;;;;4922400;28;98102;-83
2023/08/12 08:24:24;;;;;;;4.88;2.50;;;;;;;;;;4946360;28;98567;-83
2023/08/12 08:26:50;;;;;;;5.00;2.50;;;;;;;;;;4945650;28;99895;-84
2023/08/12 08:29:17;;;;;;;5.03;2.40;;;;;;;;;;4943155;28;99706;-84
2023/08/12 08:31:44;;;;;;;5.22;2.55;;;;;;;;;;4942836;28;102683;-85
2023/08/12 08:34:11;;;;;;;5.43;2.42;;;;;;;;;;4930098;28;99568;-83
2023/08/12 08:36:40;;;;;;;4.13;2.17;;;;;;;;;;4946156;28;98566;-84
2023/08/12 08:39:07;;;;;;;3.92;1.77;;;;;;;;;;4951646;28;98661;-85
2023/08/12 08:41:37;;;;;;;4.25;1.90;;;;;;;;;;4927661;28;99874;-83
2023/08/12 08:44:07;;;;;;;3.63;1.90;;;;;;;;;;4927845;28;98813;-84
2023/08/12 08:46:33;;;;;;;4.28;1.80;;;;;;;;;;4938093;28;98409;-84
2023/08/12 08:49:03;;;;;;;3.13;1.83;;;;;;;;;;4927681;28;98855;-84
2023/08/12 08:51:30;;;;;;;2.80;1.73;;;;;;;;;;4928738;28;98519;-84
2023/08/12 08:53:57;;;;;;;3.05;1.58;;;;;;;;;;4927741;28;99937;-84
2023/08/12 08:56:30;;;;;;;2.63;1.60;;;;;;;;;;4931902;28;99186;-84
2023/08/12 08:58:57;;;;;;;3.13;1.40;;;;;;;;;;4931479;28;99280;-83
2023/08/12 09:01:24;;;;;;;2.05;1.38;;;;;;;;;;4931370;28;99365;-83
2023/08/12 09:03:52;;;;;;;2.00;1.20;;;;;;;;;;4925049;28;98876;-83
2023/08/12 09:06:23;;;;;;;2.38;1.40;;;;;;;;;;4932127;28;99586;-83
2023/08/12 09:08:51;;;;;;;2.38;1.40;;;;;;;;;;4935172;28;98489;-83
2023/08/12 09:11:18;;;;;;;2.95;1.50;;;;;;;;;;4924614;28;98929;-83
2023/08/12 09:13:45;;;;;;;2.85;1.40;;;;;;;;;;4930952;28;99457;-82
2023/08/12 09:16:11;;;;;;;2.47;1.40;;;;;;;;;;4925335;28;98556;-84
2023/08/12 09:18:41;;;;;;;2.88;1.35;;;;;;;;;;4933908;28;99574;-84
2023/08/12 09:21:11;;;;;;;3.25;1.40;;;;;;;;;;4931978;28;99142;-84
2023/08/12 09:23:39;;;;;;;3.30;1.27;;;;;;;;;;4936793;28;99334;-84
2023/08/12 09:26:16;;;;;;;4.97;1.63;;;;;;;;;;4931386;28;100178;-84
2023/08/12 09:28:43;;;;;;;3.70;1.27;;;;;;;;;;4929631;28;99260;-82
2023/08/12 09:31:26;;;;;;;3.22;1.50;;;;;;;;;;4929371;28;99299;-83
2023/08/12 09:33:53;;;;;;;3.50;1.40;;;;;;;;;;4922607;28;99260;-84
2023/08/12 09:36:21;;;;;;;4.43;1.52;;;;;;;;;;4926479;28;98973;-84
2023/08/12 09:38:47;;;;;;;4.28;1.40;;;;;;;;;;4938746;28;98561;-84
2023/08/12 09:41:15;;;;;;;3.22;1.40;;;;;;;;;;4928480;28;99834;-84
2023/08/12 09:43:42;;;;;;;3.95;1.35;;;;;;;;;;4944538;28;99386;-84
2023/08/12 09:46:15;;;;;;;9.23;1.50;;;;;;;;;;4935199;28;99958;-81
2023/08/12 09:48:42;;;;;;;;;;;;;;;;;;4941297;28;98510;-80
2023/08/12 09:51:09;;;;;;;13.13;2.33;;;;;;;;;;4931189;28;98582;-79
2023/08/12 09:53:36;;;;;;;22.92;2.60;;;;;;;;;;4927643;28;99811;-80
2023/08/12 09:56:07;;;;;;;10.52;1.90;;;;;;;;;;4933103;28;99942;-80
2023/08/12 09:58:36;;;;;;;13.75;2.10;;;;;;;;;;4933121;28;101374;-79
2023/08/12 10:01:04;;;;;;;7.30;1.50;;;;;;;;;;4926162;28;98447;-79
2023/08/12 10:03:33;;;;;;;6.97;1.60;;;;;;;;;;4927990;28;100247;-79
2023/08/12 10:05:59;;;;;;;6.80;1.40;;;;;;;;;;4936048;28;99629;-79
2023/08/12 10:08:27;;;;;;;6.18;1.40;;;;;;;;;;4918482;28;99241;-80
2023/08/12 10:10:54;;;;;;;5.80;1.60;;;;;;;;;;4930528;28;100443;-79
2023/08/12 10:13:38;;;;;;;5.30;1.30;;;;;;;;;;4944991;28;101968;-79
2023/08/12 10:16:05;;;;;;;4.93;1.35;;;;;;;;;;4946416;28;98456;-79
2023/08/12 10:18:33;;;;;;;4.55;1.30;;;;;;;;;;4942024;28;99540;-82
2023/08/12 10:21:00;;;;;;;4.05;1.17;;;;;;;;;;4944569;28;99038;-80
2023/08/12 10:23:27;;;;;;;5.47;1.40;;;;;;;;;;4937874;28;98910;-81
2023/08/12 10:25:54;;;;;;;;;;;;;;;;;;4940287;28;99807;-84
2023/08/12 10:28:21;;;;;;;6.80;1.50;;;;;;;;;;4949707;28;115546;-83
2023/08/12 10:30:48;;;;;;;6.20;1.80;;;;;;;;;;4939862;28;99071;-82
2023/08/12 10:33:18;;;;;;;6.63;1.65;;;;;;;;;;4932802;28;100420;-82
2023/08/12 10:35:46;;;;;;;5.45;1.40;;;;;;;;;;4941606;28;99179;-81
2023/08/12 10:38:14;;;;;;;5.50;1.83;;;;;;;;;;4940787;28;100318;-82
2023/08/12 10:40:41;;;;;;;7.28;1.50;;;;;;;;;;4927383;28;99318;-83
2023/08/12 10:43:07;;;;;;;5.85;1.67;;;;;;;;;;4941013;28;98609;-83
2023/08/12 10:45:43;;;;;;;8.38;1.52;;;;;;;;;;4939267;28;98844;-85
2023/08/12 10:48:16;;;;;;;7.38;1.83;;;;;;;;;;4932599;28;99392;-85
2023/08/12 10:50:48;;;;;;;5.55;1.40;;;;;;;;;;4932951;28;98177;-85
2023/08/12 10:53:31;;;;;;;5.32;1.67;;;;;;;;;;4947488;28;99227;-84
2023/08/12 10:56:04;;;;;;;5.75;1.85;;;;;;;;;;4937285;28;98837;-83
2023/08/12 10:58:34;;;;;;;7.15;1.60;;;;;;;;;;4948091;28;99615;-83
2023/08/12 11:01:01;;;;;;;6.88;1.60;;;;;;;;;;4935267;28;99593;-83
2023/08/12 11:03:32;;;;;;;5.60;1.50;;;;;;;;;;4946502;28;98568;-84
2023/08/12 11:06:02;;;;;;;6.53;1.70;;;;;;;;;;4917189;28;99148;-84
2023/08/12 11:08:29;;;;;;;5.47;1.60;;;;;;;;;;4940868;28;99730;-85
2023/08/12 11:10:57;;;;;;;7.03;1.77;;;;;;;;;;4948574;28;99127;-84
2023/08/12 11:13:26;;;;;;;7.05;1.95;;;;;;;;;;4946695;28;99501;-87
2023/08/12 11:16:05;;;;;;;6.75;2.05;;;;;;;;;;4928750;28;97771;-84
2023/08/12 11:18:32;;;;;;;6.38;1.70;;;;;;;;;;4928930;28;99481;-85
2023/08/12 11:20:58;;;;;;;6.20;1.80;;;;;;;;;;4934746;28;102186;-84
2023/08/12 11:23:25;;;;;;;8.65;2.00;;;;;;;;;;4946618;28;99263;-84
2023/08/12 11:25:52;;;;;;;6.68;1.80;;;;;;;;;;4946465;28;99617;-84
2023/08/12 11:28:21;;;;;;;9.55;1.92;;;;;;;;;;4946311;28;99224;-85
2023/08/12 11:30:48;;;;;;;5.65;1.70;;;;;;;;;;4923233;28;98921;-84
2023/08/12 11:33:18;;;;;;;5.78;1.70;;;;;;;;;;4939454;28;98837;-84
2023/08/12 11:35:45;;;;;;;6.03;1.83;;;;;;;;;;4938274;28;98546;-86
2023/08/12 11:38:14;;;;;;;6.57;1.58;;;;;;;;;;4937870;28;99005;-84
2023/08/12 11:40:44;;;;;;;7.32;1.70;;;;;;;;;;4918851;28;98270;-84
2023/08/12 11:43:10;;;;;;;6.30;1.60;;;;;;;;;;4942530;28;98637;-84
2023/08/12 11:45:41;;;;;;;6.90;1.70;;;;;;;;;;4943521;28;98817;-85
2023/08/12 11:48:12;;;;;;;6.05;1.90;;;;;;;;;;4924363;28;99799;-84
2023/08/12 11:50:39;;;;;;;6.05;1.80;;;;;;;;;;4927649;28;98573;-86
2023/08/12 11:53:06;;;;;;;4.40;1.55;;;;;;;;;;4910087;28;100446;-87
2023/08/12 11:55:32;;;;;;;6.53;1.75;;;;;;;;;;4937932;28;99405;-85
2023/08/12 11:57:59;;;;;;;5.00;1.88;;;;;;;;;;4948680;28;101224;-87
2023/08/12 12:00:26;;;;;;;6.15;1.55;;;;;;;;;;4945084;28;99505;-85
2023/08/12 12:02:55;;;;;;;6.38;1.67;;;;;;;;;;4932034;28;98574;-85
2023/08/12 12:05:23;;;;;;;5.65;1.50;;;;;;;;;;4942411;28;99076;-87
2023/08/12 12:07:51;;;;;;;5.70;1.73;;;;;;;;;;4951191;28;99693;-86
2023/08/12 12:10:27;;;;;;;7.15;1.80;;;;;;;;;;4955116;28;99148;-87
2023/08/12 12:13:00;;;;;;;6.47;1.63;;;;;;;;;;4930819;28;99313;-87
2023/08/12 12:15:26;;;;;;;6.60;1.73;;;;;;;;;;4943865;28;100145;-87
2023/08/12 12:17:53;;;;;;;4.60;1.48;;;;;;;;;;4950295;28;98510;-88
2023/08/12 12:20:21;;;;;;;6.82;1.55;;;;;;;;;;4938360;28;99132;-87
2023/08/12 12:22:48;;;;;;;5.97;1.50;;;;;;;;;;4938360;28;98536;-87
2023/08/12 12:25:16;;;;;;;7.50;2.05;;;;;;;;;;4941549;28;98800;-83
2023/08/12 12:27:45;;;;;;;5.25;1.63;;;;;;;;;;4946675;28;98470;-85
2023/08/12 12:30:12;;;;;;;8.25;1.80;;;;;;;;;;4948333;28;97821;-85
2023/08/12 12:32:39;;;;;;;5.82;1.92;;;;;;;;;;4942757;28;98530;-85
2023/08/12 12:35:09;;;;;;;10.35;2.10;;;;;;;;;;4941207;28;102264;-84
2023/08/12 12:37:36;;;;;;;9.52;1.90;;;;;;;;;;4949139;28;99341;-89
2023/08/12 12:40:03;;;;;;;21.35;3.03;;;;;;;;;;4950143;28;99513;-83
2023/08/12 12:42:30;;;;;;;14.05;2.28;;;;;;;;;;4934076;28;98568;-85
2023/08/12 12:44:57;;;;;;;16.50;2.60;;;;;;;;;;4934861;28;100935;-83
2023/08/12 12:47:24;;;;;;;9.10;1.80;;;;;;;;;;4937362;28;100202;-86
2023/08/12 12:49:50;;;;;;;6.47;1.55;;;;;;;;;;4931303;28;98666;-89
2023/08/12 12:52:17;;;;;;;6.40;1.73;;;;;;;;;;4943628;28;99110;-86
2023/08/12 12:54:44;;;;;;;9.32;2.00;;;;;;;;;;4941413;28;99520;-84
2023/08/12 12:57:10;;;;;;;7.45;1.80;;;;;;;;;;4948707;28;98757;-89
2023/08/12 12:59:37;;;;;;;9.77;1.77;;;;;;;;;;4963925;28;98521;-88
2023/08/12 13:02:04;;;;;;;7.25;1.67;;;;;;;;;;4960087;28;99648;-86
2023/08/12 13:04:31;;;;;;;6.78;1.77;;;;;;;;;;4951503;28;99662;-88
2023/08/12 13:06:57;;;;;;;7.22;1.83;;;;;;;;;;4938843;28;99192;-89
2023/08/12 13:09:24;;;;;;;9.90;1.90;;;;;;;;;;4947378;28;98830;-89
2023/08/12 13:11:51;;;;;;;7.97;1.90;;;;;;;;;;4940273;28;100261;-85
2023/08/12 13:14:20;;;;;;;7.85;1.92;;;;;;;;;;4951986;28;98498;-90
2023/08/12 13:16:48;;;;;;;11.00;2.17;;;;;;;;;;4950258;28;98471;-84
2023/08/12 13:19:14;;;;;;;8.25;1.92;;;;;;;;;;4960641;28;98207;-83
2023/08/12 13:21:41;;;;;;;7.55;1.85;;;;;;;;;;4947869;28;100582;-83
2023/08/12 13:24:08;;;;;;;8.10;1.80;;;;;;;;;;4960790;28;100519;-90
2023/08/12 13:26:34;;;;;;;6.60;1.73;;;;;;;;;;4950225;28;101529;-79
2023/08/12 13:29:01;;;;;;;7.32;1.63;;;;;;;;;;4962560;28;97918;-89
2023/08/12 13:31:27;;;;;;;6.53;1.60;;;;;;;;;;4951201;28;98892;-88
2023/08/12 13:33:54;;;;;;;6.53;1.80;;;;;;;;;;4966714;28;98955;-89
2023/08/12 13:36:20;;;;;;;9.82;2.00;;;;;;;;;;4958722;28;98904;-91
2023/08/12 13:38:48;;;;;;;9.13;1.90;;;;;;;;;;4952348;28;98617;-90
2023/08/12 13:41:16;;;;;;;8.02;1.95;;;;;;;;;;4948452;28;99041;-90
2023/08/12 13:43:42;;;;;;;8.23;2.00;;;;;;;;;;4944733;28;97713;-89
2023/08/12 13:46:09;;;;;;;9.32;1.95;;;;;;;;;;4953916;28;99055;-88
2023/08/12 13:48:36;;;;;;;8.38;1.98;;;;;;;;;;4959740;28;98580;-85
2023/08/12 13:51:03;;;;;;;7.38;1.90;;;;;;;;;;4959180;28;100679;-84
2023/08/12 13:53:30;;;;;;;10.35;2.42;;;;;;;;;;4954466;28;100251;-92
2023/08/12 13:55:57;;;;;;;8.32;2.17;;;;;;;;;;4944572;28;99052;-89
2023/08/12 13:58:23;;;;;;;7.40;1.80;;;;;;;;;;4946101;28;101527;-90
2023/08/12 14:00:52;;;;;;;7.35;2.20;;;;;;;;;;4940612;28;99312;-92
2023/08/12 14:03:19;;;;;;;8.73;1.83;;;;;;;;;;4928004;28;99009;-91
2023/08/12 14:05:46;;;;;;;9.73;2.22;;;;;;;;;;4949721;28;100085;-92
2023/08/12 14:08:12;;;;;;;7.90;1.95;;;;;;;;;;4939016;28;98483;-89
2023/08/12 14:10:39;;;;;;;9.60;2.08;;;;;;;;;;4950925;28;98916;-88
2023/08/12 14:13:06;;;;;;;8.20;2.20;;;;;;;;;;4935547;28;100095;-86
2023/08/12 14:15:33;;;;;;;8.88;2.20;;;;;;;;;;4945888;28;99248;-89
2023/08/12 14:18:00;;;;;;;10.40;2.10;;;;;;;;;;4939205;28;99624;-90
2023/08/12 14:20:26;;;;;;;8.55;2.10;;;;;;;;;;4946747;28;99478;-90
2023/08/12 14:22:53;;;;;;;8.60;2.20;;;;;;;;;;4940561;28;98910;-82
2023/08/12 14:25:19;;;;;;;7.03;2.10;;;;;;;;;;4926602;28;99481;-83
2023/08/12 14:27:46;;;;;;;9.63;2.17;;;;;;;;;;4940587;28;100209;-85
2023/08/12 14:30:13;;;;;;;8.10;2.00;;;;;;;;;;4948015;28;99091;-86
2023/08/12 14:32:39;;;;;;;14.27;2.33;;;;;;;;;;4943095;28;99152;-86
2023/08/12 14:35:06;;;;;;;9.45;2.13;;;;;;;;;;4930675;28;100387;-87
2023/08/12 14:37:33;;;;;;;9.68;2.13;;;;;;;;;;4945002;28;99929;-88
2023/08/12 14:40:00;;;;;;;10.27;2.47;;;;;;;;;;4945197;28;99928;-87
2023/08/12 14:42:26;;;;;;;11.40;2.40;;;;;;;;;;4941817;28;98529;-86